sensor_id;sensor_type;location;lat;lon;timestamp;pressure;altitude;pressure_sealevel;temperature;humidity
69200;BME280;56313;49.804;9.952;2022-09-09T00:00:14;98870.78;;;15.96;66.33
69200;BME280;56313;49.804;9.952;2022-09-09T00:02:41;98868.38;;;15.79;67.28
69200;BME280;56313;49.804;9.952;2022-09-09T00:05:29;98876.75;;;15.61;67.98
69200;BME280;56313;49.804;9.952;2022-09-09T00:07:58;98884.66;;;15.83;67.21
69200;BME280;56313;49.804;9.952;2022-09-09T00:15:44;98871.44;;;15.83;67.14
69200;BME280;56313;49.804;9.952;2022-09-09T00:23:31;98880.00;;;15.85;66.93
69200;BME280;56313;49.804;9.952;2022-09-09T00:26:06;98886.69;;;16.09;66.15
69200;BME280;56313;49.804;9.952;2022-09-09T00:28:36;98893.38;;;16.05;67.54
69200;BME280;56313;49.804;9.952;2022-09-09T00:31:15;98898.16;;;16.17;70.08
69200;BME280;56313;49.804;9.952;2022-09-09T00:33:41;98880.13;;;15.99;71.51
69200;BME280;56313;49.804;9.952;2022-09-09T00:36:14;98880.16;;;16.34;72.20
69200;BME280;56313;49.804;9.952;2022-09-09T00:39:04;98872.22;;;15.77;71.24
69200;BME280;56313;49.804;9.952;2022-09-09T00:44:21;98845.56;;;15.71;73.55
69200;BME280;56313;49.804;9.952;2022-09-09T00:59:24;98838.28;;;15.52;75.65
69200;BME280;56313;49.804;9.952;2022-09-09T01:01:50;98838.06;;;15.47;77.01
69200;BME280;56313;49.804;9.952;2022-09-09T01:04:16;98845.22;;;15.53;76.88
69200;BME280;56313;49.804;9.952;2022-09-09T01:06:45;98838.75;;;15.55;75.02
69200;BME280;56313;49.804;9.952;2022-09-09T01:11:49;98845.78;;;15.48;76.57
69200;BME280;56313;49.804;9.952;2022-09-09T01:14:31;98856.91;;;15.43;77.08
69200;BME280;56313;49.804;9.952;2022-09-09T01:17:45;98854.31;;;15.50;77.11
69200;BME280;56313;49.804;9.952;2022-09-09T01:27:13;98838.81;;;15.18;78.08
69200;BME280;56313;49.804;9.952;2022-09-09T01:29:40;98840.25;;;15.21;78.54
69200;BME280;56313;49.804;9.952;2022-09-09T01:34:51;98854.84;;;15.17;78.15
69200;BME280;56313;49.804;9.952;2022-09-09T01:37:16;98854.03;;;15.38;77.12
69200;BME280;56313;49.804;9.952;2022-09-09T01:39:42;98853.41;;;15.36;77.78
69200;BME280;56313;49.804;9.952;2022-09-09T01:42:09;98852.06;;;15.69;78.84
69200;BME280;56313;49.804;9.952;2022-09-09T01:44:36;98853.06;;;15.46;76.19
69200;BME280;56313;49.804;9.952;2022-09-09T01:47:03;98860.50;;;15.57;75.39
69200;BME280;56313;49.804;9.952;2022-09-09T01:49:28;98859.09;;;15.62;75.93
69200;BME280;56313;49.804;9.952;2022-09-09T01:51:54;98856.28;;;15.63;75.42
69200;BME280;56313;49.804;9.952;2022-09-09T01:54:20;98863.63;;;15.68;75.21
69200;BME280;56313;49.804;9.952;2022-09-09T02:06:54;98857.94;;;15.71;75.45
69200;BME280;56313;49.804;9.952;2022-09-09T02:09:21;98861.22;;;15.73;74.76
69200;BME280;56313;49.804;9.952;2022-09-09T02:11:47;98860.38;;;15.94;73.54
69200;BME280;56313;49.804;9.952;2022-09-09T02:14:16;98850.81;;;15.65;74.10
69200;BME280;56313;49.804;9.952;2022-09-09T02:21:33;98853.13;;;15.31;76.10
69200;BME280;56313;49.804;9.952;2022-09-09T02:24:03;98848.16;;;15.43;75.40
69200;BME280;56313;49.804;9.952;2022-09-09T02:26:29;98851.94;;;15.55;76.44
69200;BME280;56313;49.804;9.952;2022-09-09T02:28:56;98846.63;;;15.49;75.45
69200;BME280;56313;49.804;9.952;2022-09-09T02:31:26;98854.78;;;15.54;77.40
69200;BME280;56313;49.804;9.952;2022-09-09T02:33:53;98853.63;;;15.41;75.60
69200;BME280;56313;49.804;9.952;2022-09-09T02:36:22;98849.56;;;15.39;76.33
69200;BME280;56313;49.804;9.952;2022-09-09T02:38:48;98849.56;;;15.39;76.20
69200;BME280;56313;49.804;9.952;2022-09-09T02:41:17;98857.84;;;15.36;76.15
69200;BME280;56313;49.804;9.952;2022-09-09T02:43:43;98845.09;;;15.39;76.63
69200;BME280;56313;49.804;9.952;2022-09-09T02:51:27;98842.53;;;15.24;77.14
69200;BME280;56313;49.804;9.952;2022-09-09T02:53:59;98840.06;;;15.23;76.49
69200;BME280;56313;49.804;9.952;2022-09-09T02:56:29;98837.25;;;15.24;76.71
69200;BME280;56313;49.804;9.952;2022-09-09T02:58:57;98833.34;;;15.20;77.04
69200;BME280;56313;49.804;9.952;2022-09-09T03:01:23;98843.03;;;15.13;76.60
69200;BME280;56313;49.804;9.952;2022-09-09T03:03:48;98843.91;;;15.20;77.38
69200;BME280;56313;49.804;9.952;2022-09-09T03:06:13;98849.56;;;15.17;76.48
69200;BME280;56313;49.804;9.952;2022-09-09T03:08:39;98856.84;;;15.15;76.31
69200;BME280;56313;49.804;9.952;2022-09-09T03:11:04;98853.75;;;15.11;75.83
69200;BME280;56313;49.804;9.952;2022-09-09T03:13:30;98849.50;;;15.32;75.48
69200;BME280;56313;49.804;9.952;2022-09-09T03:15:55;98853.06;;;15.46;75.50
69200;BME280;56313;49.804;9.952;2022-09-09T03:18:20;98855.53;;;15.48;74.62
69200;BME280;56313;49.804;9.952;2022-09-09T03:20:46;98855.22;;;15.36;74.99
69200;BME280;56313;49.804;9.952;2022-09-09T03:23:13;98854.78;;;15.32;74.24
69200;BME280;56313;49.804;9.952;2022-09-09T03:25:38;98859.22;;;15.31;74.39
69200;BME280;56313;49.804;9.952;2022-09-09T03:28:04;98855.59;;;15.32;75.95
69200;BME280;56313;49.804;9.952;2022-09-09T03:30:29;98854.13;;;15.30;74.78
69200;BME280;56313;49.804;9.952;2022-09-09T03:32:55;98849.81;;;15.44;74.93
69200;BME280;56313;49.804;9.952;2022-09-09T03:35:20;98848.88;;;15.30;75.99
69200;BME280;56313;49.804;9.952;2022-09-09T03:37:46;98846.50;;;15.35;77.21
69200;BME280;56313;49.804;9.952;2022-09-09T03:40:12;98842.34;;;15.26;76.97
69200;BME280;56313;49.804;9.952;2022-09-09T03:42:38;98840.38;;;15.13;75.24
69200;BME280;56313;49.804;9.952;2022-09-09T03:45:04;98833.69;;;15.32;75.42
69200;BME280;56313;49.804;9.952;2022-09-09T03:47:29;98839.00;;;15.17;76.63
69200;BME280;56313;49.804;9.952;2022-09-09T03:49:55;98833.53;;;15.18;76.00
69200;BME280;56313;49.804;9.952;2022-09-09T03:52:20;98825.69;;;15.25;75.59
69200;BME280;56313;49.804;9.952;2022-09-09T03:54:46;98828.88;;;15.20;76.17
69200;BME280;56313;49.804;9.952;2022-09-09T03:57:13;98828.78;;;15.29;76.67
69200;BME280;56313;49.804;9.952;2022-09-09T03:59:44;98819.78;;;15.23;77.15
69200;BME280;56313;49.804;9.952;2022-09-09T04:02:29;98825.56;;;15.33;75.99
69200;BME280;56313;49.804;9.952;2022-09-09T04:04:57;98820.97;;;15.42;76.02
69200;BME280;56313;49.804;9.952;2022-09-09T04:07:34;98823.63;;;15.42;76.74
69200;BME280;56313;49.804;9.952;2022-09-09T04:09:59;98825.13;;;15.30;76.63
69200;BME280;56313;49.804;9.952;2022-09-09T04:12:30;98822.66;;;15.28;78.47
69200;BME280;56313;49.804;9.952;2022-09-09T04:14:57;98823.72;;;15.34;76.49
69200;BME280;56313;49.804;9.952;2022-09-09T04:17:23;98834.28;;;15.34;76.06
69200;BME280;56313;49.804;9.952;2022-09-09T04:19:49;98837.38;;;15.38;77.46
69200;BME280;56313;49.804;9.952;2022-09-09T04:22:14;98838.06;;;15.47;77.37
69200;BME280;56313;49.804;9.952;2022-09-09T04:24:42;98841.34;;;15.49;76.75
69200;BME280;56313;49.804;9.952;2022-09-09T04:27:07;98847.09;;;15.37;77.79
69200;BME280;56313;49.804;9.952;2022-09-09T04:29:37;98850.31;;;15.54;75.99
69200;BME280;56313;49.804;9.952;2022-09-09T04:32:12;98852.97;;;15.54;75.99
69200;BME280;56313;49.804;9.952;2022-09-09T04:34:49;98854.63;;;15.62;76.12
69200;BME280;56313;49.804;9.952;2022-09-09T04:37:20;98846.72;;;15.62;75.26
69200;BME280;56313;49.804;9.952;2022-09-09T04:40:06;98845.41;;;15.51;76.18
69200;BME280;56313;49.804;9.952;2022-09-09T04:42:37;98845.59;;;15.50;76.44
69200;BME280;56313;49.804;9.952;2022-09-09T04:45:03;98840.94;;;15.52;74.73
69200;BME280;56313;49.804;9.952;2022-09-09T04:47:31;98845.91;;;15.40;75.40
69200;BME280;56313;49.804;9.952;2022-09-09T04:49:57;98856.09;;;15.43;74.63
69200;BME280;56313;49.804;9.952;2022-09-09T04:52:24;98851.97;;;15.33;74.68
69200;BME280;56313;49.804;9.952;2022-09-09T04:54:50;98852.34;;;15.30;75.86
69200;BME280;56313;49.804;9.952;2022-09-09T04:57:17;98854.47;;;15.20;74.92
69200;BME280;56313;49.804;9.952;2022-09-09T04:59:43;98858.09;;;15.19;74.95
69200;BME280;56313;49.804;9.952;2022-09-09T05:02:09;98856.41;;;15.33;74.96
69200;BME280;56313;49.804;9.952;2022-09-09T05:04:35;98857.47;;;15.39;74.34
69200;BME280;56313;49.804;9.952;2022-09-09T05:07:00;98851.78;;;15.35;74.92
69200;BME280;56313;49.804;9.952;2022-09-09T05:09:25;98863.81;;;15.23;75.09
69200;BME280;56313;49.804;9.952;2022-09-09T05:11:50;98861.44;;;15.28;75.88
69200;BME280;56313;49.804;9.952;2022-09-09T05:14:16;98868.25;;;15.22;75.71
69200;BME280;56313;49.804;9.952;2022-09-09T05:16:42;98866.78;;;15.35;74.66
69200;BME280;56313;49.804;9.952;2022-09-09T05:19:09;98870.06;;;15.37;74.93
69200;BME280;56313;49.804;9.952;2022-09-09T05:21:34;98868.84;;;15.39;74.01
69200;BME280;56313;49.804;9.952;2022-09-09T05:23:59;98869.91;;;15.45;74.19
69200;BME280;56313;49.804;9.952;2022-09-09T05:26:27;98874.81;;;15.48;74.86
69200;BME280;56313;49.804;9.952;2022-09-09T05:28:54;98882.69;;;15.63;73.73
69200;BME280;56313;49.804;9.952;2022-09-09T05:31:20;98881.16;;;15.54;74.09
69200;BME280;56313;49.804;9.952;2022-09-09T05:33:48;98884.88;;;15.60;74.15
69200;BME280;56313;49.804;9.952;2022-09-09T05:36:18;98889.22;;;15.67;74.28
69200;BME280;56313;49.804;9.952;2022-09-09T05:38:43;98892.22;;;15.64;73.75
69200;BME280;56313;49.804;9.952;2022-09-09T05:41:09;98889.63;;;15.71;73.47
69200;BME280;56313;49.804;9.952;2022-09-09T05:43:36;98895.31;;;15.68;73.80
69200;BME280;56313;49.804;9.952;2022-09-09T05:46:06;98893.66;;;15.89;73.89
69200;BME280;56313;49.804;9.952;2022-09-09T05:48:33;98893.41;;;15.83;73.44
69200;BME280;56313;49.804;9.952;2022-09-09T05:51:07;98889.78;;;16.13;77.90
69200;BME280;56313;49.804;9.952;2022-09-09T05:53:33;98898.47;;;16.07;71.85
69200;BME280;56313;49.804;9.952;2022-09-09T05:56:09;98901.19;;;15.92;72.69
69200;BME280;56313;49.804;9.952;2022-09-09T05:58:38;98900.25;;;16.00;72.59
69200;BME280;56313;49.804;9.952;2022-09-09T06:07:17;98901.69;;;16.02;72.79
69200;BME280;56313;49.804;9.952;2022-09-09T06:09:50;98898.53;;;16.14;72.01
69200;BME280;56313;49.804;9.952;2022-09-09T06:12:18;98898.53;;;16.14;73.84
69200;BME280;56313;49.804;9.952;2022-09-09T06:14:45;98905.00;;;16.11;75.33
69200;BME280;56313;49.804;9.952;2022-09-09T06:17:11;98900.97;;;15.93;73.47
69200;BME280;56313;49.804;9.952;2022-09-09T06:19:36;98905.16;;;16.03;73.81
69200;BME280;56313;49.804;9.952;2022-09-09T06:22:01;98905.78;;;16.05;74.78
69200;BME280;56313;49.804;9.952;2022-09-09T06:24:27;98901.78;;;15.87;74.73
69200;BME280;56313;49.804;9.952;2022-09-09T06:26:53;98907.75;;;15.96;75.45
69200;BME280;56313;49.804;9.952;2022-09-09T06:29:20;98903.28;;;16.25;75.21
69200;BME280;56313;49.804;9.952;2022-09-09T06:31:45;98910.44;;;16.03;73.80
69200;BME280;56313;49.804;9.952;2022-09-09T06:34:12;98906.50;;;16.20;72.75
69200;BME280;56313;49.804;9.952;2022-09-09T06:36:38;98907.25;;;16.43;71.97
69200;BME280;56313;49.804;9.952;2022-09-09T06:39:04;98911.81;;;17.05;76.80
69200;BME280;56313;49.804;9.952;2022-09-09T06:41:32;98911.91;;;16.41;72.87
69200;BME280;56313;49.804;9.952;2022-09-09T06:43:58;98904.34;;;16.31;72.35
69200;BME280;56313;49.804;9.952;2022-09-09T06:46:27;98912.63;;;16.56;72.38
69200;BME280;56313;49.804;9.952;2022-09-09T06:48:54;98908.72;;;16.94;70.41
69200;BME280;56313;49.804;9.952;2022-09-09T06:51:24;98910.94;;;16.49;71.51
69200;BME280;56313;49.804;9.952;2022-09-09T06:53:51;98912.25;;;17.08;78.30
69200;BME280;56313;49.804;9.952;2022-09-09T06:56:22;98914.50;;;16.69;69.98
69200;BME280;56313;49.804;9.952;2022-09-09T06:58:48;98910.56;;;17.01;75.56
69200;BME280;56313;49.804;9.952;2022-09-09T07:01:30;98909.00;;;16.64;72.84
69200;BME280;56313;49.804;9.952;2022-09-09T07:03:56;98914.19;;;17.55;76.41
69200;BME280;56313;49.804;9.952;2022-09-09T07:06:33;98911.78;;;17.94;72.88
69200;BME280;56313;49.804;9.952;2022-09-09T07:09:00;98912.81;;;17.04;68.24
69200;BME280;56313;49.804;9.952;2022-09-09T07:11:27;98913.34;;;16.85;69.71
69200;BME280;56313;49.804;9.952;2022-09-09T07:13:52;98918.03;;;17.39;72.36
69200;BME280;56313;49.804;9.952;2022-09-09T07:16:18;98911.09;;;17.31;68.39
69200;BME280;56313;49.804;9.952;2022-09-09T07:18:45;98907.72;;;18.12;67.03
69200;BME280;56313;49.804;9.952;2022-09-09T07:21:11;98914.22;;;17.82;66.63
69200;BME280;56313;49.804;9.952;2022-09-09T07:23:37;98910.34;;;17.58;66.30
69200;BME280;56313;49.804;9.952;2022-09-09T07:26:06;98910.69;;;17.34;67.66
69200;BME280;56313;49.804;9.952;2022-09-09T07:28:32;98903.84;;;17.94;67.68
69200;BME280;56313;49.804;9.952;2022-09-09T07:30:58;98912.94;;;18.59;72.39
69200;BME280;56313;49.804;9.952;2022-09-09T07:33:24;98909.63;;;18.71;67.79
69200;BME280;56313;49.804;9.952;2022-09-09T07:35:50;98910.88;;;18.68;67.42
69200;BME280;56313;49.804;9.952;2022-09-09T07:38:15;98917.03;;;18.55;69.63
69200;BME280;56313;49.804;9.952;2022-09-09T07:40:41;98910.59;;;18.17;66.31
69200;BME280;56313;49.804;9.952;2022-09-09T07:43:06;98913.34;;;18.63;66.26
69200;BME280;56313;49.804;9.952;2022-09-09T07:45:33;98912.38;;;18.44;64.07
69200;BME280;56313;49.804;9.952;2022-09-09T07:47:58;98911.31;;;18.58;65.49
69200;BME280;56313;49.804;9.952;2022-09-09T07:50:24;98911.19;;;18.26;63.91
69200;BME280;56313;49.804;9.952;2022-09-09T07:52:52;98910.31;;;18.53;70.77
69200;BME280;56313;49.804;9.952;2022-09-09T07:55:21;98911.06;;;18.67;67.24
69200;BME280;56313;49.804;9.952;2022-09-09T07:57:50;98920.47;;;18.69;71.57
69200;BME280;56313;49.804;9.952;2022-09-09T08:00:15;98914.47;;;18.87;63.29
69200;BME280;56313;49.804;9.952;2022-09-09T08:02:40;98904.16;;;19.18;71.00
69200;BME280;56313;49.804;9.952;2022-09-09T08:05:06;98910.38;;;19.37;69.83
69200;BME280;56313;49.804;9.952;2022-09-09T08:07:31;98911.78;;;19.08;68.55
69200;BME280;56313;49.804;9.952;2022-09-09T08:09:56;98908.88;;;19.16;63.09
69200;BME280;56313;49.804;9.952;2022-09-09T08:12:22;98906.13;;;19.30;63.19
69200;BME280;56313;49.804;9.952;2022-09-09T08:14:48;98910.09;;;19.07;62.73
69200;BME280;56313;49.804;9.952;2022-09-09T08:17:13;98918.84;;;19.21;64.85
69200;BME280;56313;49.804;9.952;2022-09-09T08:19:39;98913.25;;;19.36;64.40
69200;BME280;56313;49.804;9.952;2022-09-09T08:22:04;98914.94;;;19.30;62.65
69200;BME280;56313;49.804;9.952;2022-09-09T08:24:29;98916.72;;;19.69;68.88
69200;BME280;56313;49.804;9.952;2022-09-09T08:26:55;98912.84;;;19.90;68.99
69200;BME280;56313;49.804;9.952;2022-09-09T08:29:21;98914.50;;;19.66;69.01
69200;BME280;56313;49.804;9.952;2022-09-09T08:31:54;98917.41;;;19.57;63.55
69200;BME280;56313;49.804;9.952;2022-09-09T08:34:20;98918.06;;;19.78;67.74
69200;BME280;56313;49.804;9.952;2022-09-09T08:36:46;98917.81;;;19.86;68.50
69200;BME280;56313;49.804;9.952;2022-09-09T08:39:13;98930.28;;;19.86;70.18
69200;BME280;56313;49.804;9.952;2022-09-09T08:44:10;98928.59;;;19.92;69.25
69200;BME280;56313;49.804;9.952;2022-09-09T08:51:42;98936.28;;;19.74;68.87
69200;BME280;56313;49.804;9.952;2022-09-09T08:54:08;98929.66;;;19.84;64.07
69200;BME280;56313;49.804;9.952;2022-09-09T08:56:35;98936.38;;;19.61;61.22
69200;BME280;56313;49.804;9.952;2022-09-09T08:59:01;98932.81;;;19.74;63.31
69200;BME280;56313;49.804;9.952;2022-09-09T09:11:52;98928.50;;;20.05;66.00
69200;BME280;56313;49.804;9.952;2022-09-09T09:14:22;98922.00;;;20.01;64.66
69200;BME280;56313;49.804;9.952;2022-09-09T09:16:52;98927.91;;;20.03;63.32
69200;BME280;56313;49.804;9.952;2022-09-09T09:19:21;98935.91;;;19.96;66.80
69200;BME280;56313;49.804;9.952;2022-09-09T09:21:50;98928.22;;;20.13;67.53
69200;BME280;56313;49.804;9.952;2022-09-09T09:24:19;98928.09;;;20.08;66.28
69200;BME280;56313;49.804;9.952;2022-09-09T09:26:45;98936.31;;;20.00;59.74
69200;BME280;56313;49.804;9.952;2022-09-09T09:29:11;98933.47;;;19.95;61.07
69200;BME280;56313;49.804;9.952;2022-09-09T09:31:37;98918.38;;;20.21;67.34
69200;BME280;56313;49.804;9.952;2022-09-09T09:34:02;98926.31;;;19.95;58.79
69200;BME280;56313;49.804;9.952;2022-09-09T09:36:52;98919.88;;;20.10;65.59
69200;BME280;56313;49.804;9.952;2022-09-09T09:39:49;98923.81;;;20.26;58.95
69200;BME280;56313;49.804;9.952;2022-09-09T09:42:11;98920.47;;;20.12;67.18
69200;BME280;56313;49.804;9.952;2022-09-09T09:44:39;98919.97;;;20.22;61.09
69200;BME280;56313;49.804;9.952;2022-09-09T09:47:05;98910.16;;;20.22;64.46
69200;BME280;56313;49.804;9.952;2022-09-09T09:49:31;98897.09;;;20.21;67.53
69200;BME280;56313;49.804;9.952;2022-09-09T09:52:04;98899.47;;;20.29;66.84
69200;BME280;56313;49.804;9.952;2022-09-09T09:54:30;98890.00;;;20.33;59.07
69200;BME280;56313;49.804;9.952;2022-09-09T09:57:06;98891.22;;;20.12;61.98
69200;BME280;56313;49.804;9.952;2022-09-09T09:59:34;98885.63;;;20.20;57.28
69200;BME280;56313;49.804;9.952;2022-09-09T10:02:12;98880.03;;;20.29;62.43
69200;BME280;56313;49.804;9.952;2022-09-09T10:04:38;98895.53;;;20.32;57.48
69200;BME280;56313;49.804;9.952;2022-09-09T10:07:15;98894.88;;;20.36;64.60
69200;BME280;56313;49.804;9.952;2022-09-09T10:09:42;98891.88;;;20.51;61.24
69200;BME280;56313;49.804;9.952;2022-09-09T10:22:28;98885.84;;;20.37;66.24
69200;BME280;56313;49.804;9.952;2022-09-09T10:35:27;98874.00;;;20.40;65.43
69200;BME280;56313;49.804;9.952;2022-09-09T10:40:37;98908.09;;;20.24;56.58
69200;BME280;56313;49.804;9.952;2022-09-09T10:43:07;98957.66;;;20.19;66.77
69200;BME280;56313;49.804;9.952;2022-09-09T10:45:40;99018.28;;;19.25;71.52
69200;BME280;56313;49.804;9.952;2022-09-09T10:48:12;99010.28;;;17.35;73.57
69200;BME280;56313;49.804;9.952;2022-09-09T10:50:44;99013.88;;;15.48;77.51
69200;BME280;56313;49.804;9.952;2022-09-09T10:53:14;98988.13;;;14.82;80.44
69200;BME280;56313;49.804;9.952;2022-09-09T10:55:45;98990.97;;;14.57;78.73
69200;BME280;56313;49.804;9.952;2022-09-09T10:58:36;98988.94;;;14.83;77.63
69200;BME280;56313;49.804;9.952;2022-09-09T11:01:25;98984.88;;;15.32;76.20
69200;BME280;56313;49.804;9.952;2022-09-09T11:03:51;98972.78;;;15.38;76.02
69200;BME280;56313;49.804;9.952;2022-09-09T11:06:20;98974.50;;;15.90;80.06
69200;BME280;56313;49.804;9.952;2022-09-09T11:08:47;98956.53;;;15.78;75.41
69200;BME280;56313;49.804;9.952;2022-09-09T11:11:16;98962.72;;;16.07;75.15
69200;BME280;56313;49.804;9.952;2022-09-09T11:14:05;98968.28;;;16.19;77.19
69200;BME280;56313;49.804;9.952;2022-09-09T11:16:34;98958.78;;;16.54;76.48
69200;BME280;56313;49.804;9.952;2022-09-09T11:21:43;98959.28;;;17.89;75.13
69200;BME280;56313;49.804;9.952;2022-09-09T11:24:12;98949.25;;;17.78;75.06
69200;BME280;56313;49.804;9.952;2022-09-09T11:26:41;98948.88;;;18.08;75.01
69200;BME280;56313;49.804;9.952;2022-09-09T11:29:15;98952.50;;;18.68;70.10
69200;BME280;56313;49.804;9.952;2022-09-09T11:31:46;98943.69;;;18.74;72.60
69200;BME280;56313;49.804;9.952;2022-09-09T11:37:08;98945.13;;;19.36;72.36
69200;BME280;56313;49.804;9.952;2022-09-09T11:42:47;98932.75;;;19.55;71.38
69200;BME280;56313;49.804;9.952;2022-09-09T11:45:25;98927.31;;;19.43;71.48
69200;BME280;56313;49.804;9.952;2022-09-09T11:47:54;98920.25;;;19.88;70.13
69200;BME280;56313;49.804;9.952;2022-09-09T11:52:48;98910.69;;;19.80;67.14
69200;BME280;56313;49.804;9.952;2022-09-09T11:55:28;98909.44;;;19.83;66.46
69200;BME280;56313;49.804;9.952;2022-09-09T11:58:01;98910.91;;;19.79;65.97
69200;BME280;56313;49.804;9.952;2022-09-09T12:00:31;98912.00;;;19.71;68.98
69200;BME280;56313;49.804;9.952;2022-09-09T12:03:01;98912.97;;;19.51;66.30
69200;BME280;56313;49.804;9.952;2022-09-09T12:08:11;98907.00;;;19.81;69.69
69200;BME280;56313;49.804;9.952;2022-09-09T12:10:52;98906.63;;;19.78;65.50
69200;BME280;56313;49.804;9.952;2022-09-09T12:13:22;98908.16;;;19.92;67.29
69200;BME280;56313;49.804;9.952;2022-09-09T12:15:53;98900.91;;;19.81;69.45
69200;BME280;56313;49.804;9.952;2022-09-09T12:21:27;98905.44;;;20.24;66.18
69200;BME280;56313;49.804;9.952;2022-09-09T12:23:59;98892.31;;;20.30;67.43
69200;BME280;56313;49.804;9.952;2022-09-09T12:32:05;98876.25;;;20.18;63.15
69200;BME280;56313;49.804;9.952;2022-09-09T12:34:51;98876.44;;;20.42;67.32
69200;BME280;56313;49.804;9.952;2022-09-09T12:37:34;98866.81;;;20.41;66.81
69200;BME280;56313;49.804;9.952;2022-09-09T12:40:01;98877.00;;;20.25;63.80
69200;BME280;56313;49.804;9.952;2022-09-09T12:42:28;98877.63;;;20.02;61.31
69200;BME280;56313;49.804;9.952;2022-09-09T12:44:57;98863.97;;;20.17;64.38
69200;BME280;56313;49.804;9.952;2022-09-09T12:47:24;98871.09;;;20.23;62.10
69200;BME280;56313;49.804;9.952;2022-09-09T12:49:51;98872.66;;;20.31;65.74
69200;BME280;56313;49.804;9.952;2022-09-09T12:54:43;98868.81;;;20.45;65.63
69200;BME280;56313;49.804;9.952;2022-09-09T12:57:11;98867.03;;;20.39;65.99
69200;BME280;56313;49.804;9.952;2022-09-09T12:59:41;98868.94;;;20.32;67.18
69200;BME280;56313;49.804;9.952;2022-09-09T13:05:19;98848.91;;;20.48;66.45
69200;BME280;56313;49.804;9.952;2022-09-09T13:08:28;98852.94;;;20.38;63.62
69200;BME280;56313;49.804;9.952;2022-09-09T13:10:39;98847.88;;;20.30;67.58
69200;BME280;56313;49.804;9.952;2022-09-09T13:13:13;98851.34;;;20.49;60.78
69200;BME280;56313;49.804;9.952;2022-09-09T13:15:47;98843.03;;;20.46;64.86
69200;BME280;56313;49.804;9.952;2022-09-09T13:18:13;98841.25;;;20.40;61.93
69200;BME280;56313;49.804;9.952;2022-09-09T13:20:39;98843.19;;;20.32;65.23
69200;BME280;56313;49.804;9.952;2022-09-09T13:23:11;98848.84;;;20.36;61.99
69200;BME280;56313;49.804;9.952;2022-09-09T13:25:36;98845.66;;;20.27;61.24
69200;BME280;56313;49.804;9.952;2022-09-09T13:28:04;98841.84;;;20.23;66.33
69200;BME280;56313;49.804;9.952;2022-09-09T13:30:34;98836.97;;;20.20;64.17
69200;BME280;56313;49.804;9.952;2022-09-09T13:33:06;98829.94;;;20.25;59.40
69200;BME280;56313;49.804;9.952;2022-09-09T13:35:32;98834.09;;;20.40;66.98
69200;BME280;56313;49.804;9.952;2022-09-09T13:37:58;98824.25;;;20.41;65.93
69200;BME280;56313;49.804;9.952;2022-09-09T13:40:24;98824.09;;;20.54;64.11
69200;BME280;56313;49.804;9.952;2022-09-09T13:42:56;98818.34;;;20.38;64.85
69200;BME280;56313;49.804;9.952;2022-09-09T13:45:24;98829.63;;;20.53;64.63
69200;BME280;56313;49.804;9.952;2022-09-09T13:47:51;98824.19;;;20.47;53.66
69200;BME280;56313;49.804;9.952;2022-09-09T13:50:29;98824.47;;;20.58;63.71
69200;BME280;56313;49.804;9.952;2022-09-09T13:52:55;98815.56;;;20.64;61.44
69200;BME280;56313;49.804;9.952;2022-09-09T13:55:23;98818.56;;;20.37;57.74
69200;BME280;56313;49.804;9.952;2022-09-09T13:58:01;98824.97;;;20.48;62.00
69200;BME280;56313;49.804;9.952;2022-09-09T14:00:28;98815.97;;;20.49;51.48
69200;BME280;56313;49.804;9.952;2022-09-09T14:02:54;98823.81;;;20.44;58.76
69200;BME280;56313;49.804;9.952;2022-09-09T14:05:20;98818.69;;;20.61;54.34
69200;BME280;56313;49.804;9.952;2022-09-09T14:07:47;98822.75;;;20.45;55.69
69200;BME280;56313;49.804;9.952;2022-09-09T14:10:13;98823.06;;;20.36;54.79
69200;BME280;56313;49.804;9.952;2022-09-09T14:12:38;98830.06;;;20.49;60.42
69200;BME280;56313;49.804;9.952;2022-09-09T14:15:04;98821.03;;;20.69;63.51
69200;BME280;56313;49.804;9.952;2022-09-09T14:17:30;98826.97;;;20.53;64.38
69200;BME280;56313;49.804;9.952;2022-09-09T14:19:56;98825.91;;;20.42;60.24
69200;BME280;56313;49.804;9.952;2022-09-09T14:22:22;98823.19;;;20.60;52.27
69200;BME280;56313;49.804;9.952;2022-09-09T14:24:47;98819.88;;;20.65;52.02
69200;BME280;56313;49.804;9.952;2022-09-09T14:27:13;98820.50;;;20.79;52.25
69200;BME280;56313;49.804;9.952;2022-09-09T14:29:38;98825.13;;;21.02;61.05
69200;BME280;56313;49.804;9.952;2022-09-09T14:32:03;98818.72;;;20.92;52.84
69200;BME280;56313;49.804;9.952;2022-09-09T14:34:28;98811.00;;;20.71;61.04
69200;BME280;56313;49.804;9.952;2022-09-09T14:36:54;98804.75;;;20.77;61.04
69200;BME280;56313;49.804;9.952;2022-09-09T14:39:19;98802.22;;;20.52;59.59
69200;BME280;56313;49.804;9.952;2022-09-09T14:41:44;98805.41;;;20.42;58.67
69200;BME280;56313;49.804;9.952;2022-09-09T14:44:10;98812.41;;;20.55;54.12
69200;BME280;56313;49.804;9.952;2022-09-09T14:46:36;98813.31;;;20.49;63.92
69200;BME280;56313;49.804;9.952;2022-09-09T14:49:01;98823.91;;;20.37;55.86
69200;BME280;56313;49.804;9.952;2022-09-09T14:51:26;98836.38;;;20.36;60.29
69200;BME280;56313;49.804;9.952;2022-09-09T14:53:55;98878.22;;;19.78;67.76
69200;BME280;56313;49.804;9.952;2022-09-09T14:56:23;98892.63;;;17.72;68.08
69200;BME280;56313;49.804;9.952;2022-09-09T14:58:49;98883.25;;;17.63;68.42
69200;BME280;56313;49.804;9.952;2022-09-09T15:01:15;98882.25;;;16.88;74.28
69200;BME280;56313;49.804;9.952;2022-09-09T15:03:41;98864.06;;;17.33;72.49
69200;BME280;56313;49.804;9.952;2022-09-09T15:06:12;98863.72;;;17.64;68.58
69200;BME280;56313;49.804;9.952;2022-09-09T15:08:38;98864.66;;;17.15;67.79
69200;BME280;56313;49.804;9.952;2022-09-09T15:11:04;98858.19;;;17.99;73.08
69200;BME280;56313;49.804;9.952;2022-09-09T15:13:31;98862.06;;;17.90;70.07
69200;BME280;56313;49.804;9.952;2022-09-09T15:16:02;98853.91;;;17.37;68.32
69200;BME280;56313;49.804;9.952;2022-09-09T15:18:28;98847.16;;;17.14;68.03
69200;BME280;56313;49.804;9.952;2022-09-09T15:20:53;98855.31;;;17.46;75.08